sensor_id;sensor_type;location;lat;lon;timestamp;pressure;altitude;pressure_sealevel;temperature;humidity
2188;BME280;1100;52.014;8.540;2023-11-21T00:01:25;99575.50;;;6.06;100.00
2188;BME280;1100;52.014;8.540;2023-11-21T00:03:50;99578.63;;;6.08;100.00
2188;BME280;1100;52.014;8.540;2023-11-21T00:06:16;99582.94;;;6.09;100.00
2188;BME280;1100;52.014;8.540;2023-11-21T00:08:41;99575.78;;;6.12;100.00
2188;BME280;1100;52.014;8.540;2023-11-21T00:11:06;99584.06;;;6.12;100.00
2188;BME280;1100;52.014;8.540;2023-11-21T00:13:32;99585.22;;;6.15;100.00
2188;BME280;1100;52.014;8.540;2023-11-21T00:15:58;99580.47;;;6.15;100.00
2188;BME280;1100;52.014;8.540;2023-11-21T00:18:23;99579.69;;;6.15;100.00
2188;BME280;1100;52.014;8.540;2023-11-21T00:20:49;99598.19;;;6.18;100.00
2188;BME280;1100;52.014;8.540;2023-11-21T00:23:14;99595.41;;;6.18;100.00
2188;BME280;1100;52.014;8.540;2023-11-21T00:25:39;99587.13;;;6.18;100.00
2188;BME280;1100;52.014;8.540;2023-11-21T00:28:05;99596.97;;;6.19;100.00
2188;BME280;1100;52.014;8.540;2023-11-21T00:30:31;99596.19;;;6.18;100.00
2188;BME280;1100;52.014;8.540;2023-11-21T00:32:57;99600.94;;;6.18;100.00
2188;BME280;1100;52.014;8.540;2023-11-21T00:35:22;99596.59;;;6.17;100.00
2188;BME280;1100;52.014;8.540;2023-11-21T00:37:47;99600.94;;;6.18;100.00
2188;BME280;1100;52.014;8.540;2023-11-21T00:40:15;99606.44;;;6.18;100.00
2188;BME280;1100;52.014;8.540;2023-11-21T00:42:41;99601.63;;;6.22;100.00
2188;BME280;1100;52.014;8.540;2023-11-21T00:45:07;99593.00;;;6.20;100.00
2188;BME280;1100;52.014;8.540;2023-11-21T00:47:32;99599.72;;;6.19;100.00
2188;BME280;1100;52.014;8.540;2023-11-21T00:49:57;99599.34;;;6.17;100.00
2188;BME280;1100;52.014;8.540;2023-11-21T00:52:23;99595.84;;;6.16;100.00
2188;BME280;1100;52.014;8.540;2023-11-21T00:54:48;99598.59;;;6.16;100.00
2188;BME280;1100;52.014;8.540;2023-11-21T00:57:14;99595.41;;;6.18;100.00
2188;BME280;1100;52.014;8.540;2023-11-21T00:59:39;99595.41;;;6.18;100.00
2188;BME280;1100;52.014;8.540;2023-11-21T01:02:05;99599.72;;;6.19;100.00
2188;BME280;1100;52.014;8.540;2023-11-21T01:04:30;99599.72;;;6.19;100.00
2188;BME280;1100;52.014;8.540;2023-11-21T01:06:57;99606.44;;;6.18;100.00
2188;BME280;1100;52.014;8.540;2023-11-21T01:09:23;99606.44;;;6.18;100.00
2188;BME280;1100;52.014;8.540;2023-11-21T01:11:49;99609.13;;;6.21;100.00
2188;BME280;1100;52.014;8.540;2023-11-21T01:14:14;99612.31;;;6.20;100.00
2188;BME280;1100;52.014;8.540;2023-11-21T01:16:40;99617.41;;;6.21;100.00
2188;BME280;1100;52.014;8.540;2023-11-21T01:19:05;99623.31;;;6.23;100.00
2188;BME280;1100;52.014;8.540;2023-11-21T01:21:31;99618.91;;;6.26;100.00
2188;BME280;1100;52.014;8.540;2023-11-21T01:23:56;99630.75;;;6.27;100.00
2188;BME280;1100;52.014;8.540;2023-11-21T01:26:22;99619.69;;;6.27;100.00
2188;BME280;1100;52.014;8.540;2023-11-21T01:28:48;99627.56;;;6.28;100.00
2188;BME280;1100;52.014;8.540;2023-11-21T01:31:17;99622.88;;;6.25;100.00
2188;BME280;1100;52.014;8.540;2023-11-21T01:33:42;99622.94;;;6.21;100.00
2188;BME280;1100;52.014;8.540;2023-11-21T01:36:08;99628.81;;;6.23;100.00
2188;BME280;1100;52.014;8.540;2023-11-21T01:38:34;99626.06;;;6.23;100.00
2188;BME280;1100;52.014;8.540;2023-11-21T01:40:59;99631.53;;;6.27;100.00
2188;BME280;1100;52.014;8.540;2023-11-21T01:43:26;99624.44;;;6.26;100.00
2188;BME280;1100;52.014;8.540;2023-11-21T01:45:54;99628.41;;;6.25;100.00
2188;BME280;1100;52.014;8.540;2023-11-21T01:48:22;99628.41;;;6.25;100.00
2188;BME280;1100;52.014;8.540;2023-11-21T01:50:47;99621.34;;;6.24;100.00
2188;BME280;1100;52.014;8.540;2023-11-21T01:53:14;99626.00;;;6.27;100.00
2188;BME280;1100;52.014;8.540;2023-11-21T01:55:40;99626.78;;;6.28;100.00
2188;BME280;1100;52.014;8.540;2023-11-21T01:58:06;99626.84;;;6.24;100.00
2188;BME280;1100;52.014;8.540;2023-11-21T02:00:32;99626.00;;;6.27;100.00
2188;BME280;1100;52.014;8.540;2023-11-21T02:02:58;99616.50;;;6.28;100.00
2188;BME280;1100;52.014;8.540;2023-11-21T02:05:24;99620.13;;;6.25;100.00
2188;BME280;1100;52.014;8.540;2023-11-21T02:07:51;99618.16;;;6.26;100.00
2188;BME280;1100;52.014;8.540;2023-11-21T02:10:18;99624.44;;;6.26;100.00
2188;BME280;1100;52.014;8.540;2023-11-21T02:12:48;99621.34;;;6.24;100.00
2188;BME280;1100;52.014;8.540;2023-11-21T02:15:16;99617.84;;;6.20;100.00
2188;BME280;1100;52.014;8.540;2023-11-21T02:17:49;99627.69;;;6.21;100.00
2188;BME280;1100;52.014;8.540;2023-11-21T02:20:17;99629.66;;;6.20;100.00
2188;BME280;1100;52.014;8.540;2023-11-21T02:22:54;99640.34;;;6.18;100.00
2188;BME280;1100;52.014;8.540;2023-11-21T02:25:23;99647.00;;;6.21;100.00
2188;BME280;1100;52.014;8.540;2023-11-21T02:27:49;99650.94;;;6.20;100.00
2188;BME280;1100;52.014;8.540;2023-11-21T02:30:15;99660.41;;;6.22;100.00
2188;BME280;1100;52.014;8.540;2023-11-21T02:32:41;99649.34;;;6.22;100.00
2188;BME280;1100;52.014;8.540;2023-11-21T02:35:08;99652.44;;;6.25;100.00
2188;BME280;1100;52.014;8.540;2023-11-21T02:37:33;99656.00;;;6.25;100.00
2188;BME280;1100;52.014;8.540;2023-11-21T02:40:00;99661.53;;;6.25;100.00
2188;BME280;1100;52.014;8.540;2023-11-21T02:42:25;99651.63;;;6.28;100.00
2188;BME280;1100;52.014;8.540;2023-11-21T02:44:51;99658.28;;;6.30;100.00
2188;BME280;1100;52.014;8.540;2023-11-21T02:47:16;99661.41;;;6.32;100.00
2188;BME280;1100;52.014;8.540;2023-11-21T02:49:41;99662.97;;;6.33;100.00
2188;BME280;1100;52.014;8.540;2023-11-21T02:52:07;99655.03;;;6.35;100.00
2188;BME280;1100;52.014;8.540;2023-11-21T02:54:32;99668.41;;;6.37;100.00
2188;BME280;1100;52.014;8.540;2023-11-21T02:57:01;99666.81;;;6.40;100.00
2188;BME280;1100;52.014;8.540;2023-11-21T02:59:27;99673.88;;;6.41;100.00
2188;BME280;1100;52.014;8.540;2023-11-21T03:01:52;99673.09;;;6.40;100.00
2188;BME280;1100;52.014;8.540;2023-11-21T03:04:18;99669.16;;;6.41;100.00
2188;BME280;1100;52.014;8.540;2023-11-21T03:06:44;99673.84;;;6.44;100.00
2188;BME280;1100;52.014;8.540;2023-11-21T03:09:10;99673.41;;;6.46;100.00
2188;BME280;1100;52.014;8.540;2023-11-21T03:11:37;99665.13;;;6.46;100.00
2188;BME280;1100;52.014;8.540;2023-11-21T03:14:03;99673.00;;;6.47;100.00
2188;BME280;1100;52.014;8.540;2023-11-21T03:16:28;99675.38;;;6.45;100.00
2188;BME280;1100;52.014;8.540;2023-11-21T03:18:54;99678.50;;;6.47;100.00
2188;BME280;1100;52.014;8.540;2023-11-21T03:21:19;99673.41;;;6.46;100.00
2188;BME280;1100;52.014;8.540;2023-11-21T03:23:45;99676.16;;;6.46;100.00
2188;BME280;1100;52.014;8.540;2023-11-21T03:26:13;99679.69;;;6.46;100.00
2188;BME280;1100;52.014;8.540;2023-11-21T03:28:39;99678.50;;;6.47;100.00
2188;BME280;1100;52.014;8.540;2023-11-21T03:31:04;99684.78;;;6.48;100.00
2188;BME280;1100;52.014;8.540;2023-11-21T03:33:31;99683.25;;;6.47;100.00
2188;BME280;1100;52.014;8.540;2023-11-21T03:35:57;99692.31;;;6.47;100.00
2188;BME280;1100;52.014;8.540;2023-11-21T03:38:22;99696.63;;;6.48;100.00
2188;BME280;1100;52.014;8.540;2023-11-21T03:40:48;99699.38;;;6.48;100.00
2188;BME280;1100;52.014;8.540;2023-11-21T03:43:13;99702.56;;;6.47;100.00
2188;BME280;1100;52.014;8.540;2023-11-21T03:45:38;99701.38;;;6.48;100.00
2188;BME280;1100;52.014;8.540;2023-11-21T03:48:06;99706.47;;;6.50;100.00
2188;BME280;1100;52.014;8.540;2023-11-21T03:50:31;99707.25;;;6.50;100.00
2188;BME280;1100;52.014;8.540;2023-11-21T03:52:57;99705.28;;;6.51;100.00
2188;BME280;1100;52.014;8.540;2023-11-21T03:55:22;99711.22;;;6.49;100.00
2188;BME280;1100;52.014;8.540;2023-11-21T03:57:49;99717.09;;;6.51;100.00
2188;BME280;1100;52.014;8.540;2023-11-21T04:00:15;99717.09;;;6.51;100.00
2188;BME280;1100;52.014;8.540;2023-11-21T04:02:41;99715.91;;;6.52;100.00
2188;BME280;1100;52.014;8.540;2023-11-21T04:05:06;99720.22;;;6.53;100.00
2188;BME280;1100;52.014;8.540;2023-11-21T04:07:32;99725.38;;;6.51;100.00
2188;BME280;1100;52.014;8.540;2023-11-21T04:09:57;99719.50;;;6.49;100.00
2188;BME280;1100;52.014;8.540;2023-11-21T04:12:23;99723.81;;;6.50;100.00
2188;BME280;1100;52.014;8.540;2023-11-21T04:14:48;99721.91;;;6.47;100.00
2188;BME280;1100;52.014;8.540;2023-11-21T04:17:13;99718.78;;;6.45;100.00
2188;BME280;1100;52.014;8.540;2023-11-21T04:19:39;99731.44;;;6.42;100.00
2188;BME280;1100;52.014;8.540;2023-11-21T04:22:04;99730.66;;;6.42;100.00
2188;BME280;1100;52.014;8.540;2023-11-21T04:24:29;99732.28;;;6.39;100.00
2188;BME280;1100;52.014;8.540;2023-11-21T04:26:55;99728.38;;;6.37;100.00
2188;BME280;1100;52.014;8.540;2023-11-21T04:29:20;99738.22;;;6.38;100.00
2188;BME280;1100;52.014;8.540;2023-11-21T04:31:46;99739.84;;;6.35;100.00
2188;BME280;1100;52.014;8.540;2023-11-21T04:34:11;99739.47;;;6.33;100.00
2188;BME280;1100;52.014;8.540;2023-11-21T04:36:39;99740.31;;;6.30;100.00
2188;BME280;1100;52.014;8.540;2023-11-21T04:39:05;99741.94;;;6.27;100.00
2188;BME280;1100;52.014;8.540;2023-11-21T04:41:32;99744.34;;;6.25;100.00
2188;BME280;1100;52.014;8.540;2023-11-21T04:43:57;99748.63;;;6.26;100.00
2188;BME280;1100;52.014;8.540;2023-11-21T04:46:23;99744.75;;;6.23;100.00
2188;BME280;1100;52.014;8.540;2023-11-21T04:48:49;99754.66;;;6.21;100.00
2188;BME280;1100;52.014;8.540;2023-11-21T04:51:14;99754.69;;;6.17;100.00
2188;BME280;1100;52.014;8.540;2023-11-21T04:53:39;99755.53;;;6.14;100.00
2188;BME280;1100;52.014;8.540;2023-11-21T04:56:05;99759.50;;;6.13;100.00
2188;BME280;1100;52.014;8.540;2023-11-21T04:58:30;99759.53;;;6.09;100.00
2188;BME280;1100;52.014;8.540;2023-11-21T05:00:58;99756.41;;;6.07;100.00
2188;BME280;1100;52.014;8.540;2023-11-21T05:03:24;99748.53;;;6.06;100.00
2188;BME280;1100;52.014;8.540;2023-11-21T05:05:49;99750.13;;;6.03;100.00
2188;BME280;1100;52.014;8.540;2023-11-21T05:08:15;99760.81;;;6.01;100.00
2188;BME280;1100;52.014;8.540;2023-11-21T05:10:40;99758.03;;;6.01;100.00
2188;BME280;1100;52.014;8.540;2023-11-21T05:13:05;99749.41;;;5.99;100.00
2188;BME280;1100;52.014;8.540;2023-11-21T05:15:35;99761.22;;;5.99;100.00
2188;BME280;1100;52.014;8.540;2023-11-21T05:18:00;99763.22;;;5.99;100.00
2188;BME280;1100;52.014;8.540;2023-11-21T05:20:26;99763.25;;;5.95;100.00
2188;BME280;1100;52.014;8.540;2023-11-21T05:22:51;99761.28;;;5.96;100.00
2188;BME280;1100;52.014;8.540;2023-11-21T05:25:17;99757.72;;;5.95;100.00
2188;BME280;1100;52.014;8.540;2023-11-21T05:27:46;99764.47;;;5.94;100.00
2188;BME280;1100;52.014;8.540;2023-11-21T05:30:13;99763.66;;;5.94;100.00
2188;BME280;1100;52.014;8.540;2023-11-21T05:32:39;99767.22;;;5.94;100.00
2188;BME280;1100;52.014;8.540;2023-11-21T05:35:05;99774.69;;;5.94;100.00
2188;BME280;1100;52.014;8.540;2023-11-21T05:37:37;99773.91;;;5.93;100.00
2188;BME280;1100;52.014;8.540;2023-11-21T05:40:04;99779.44;;;5.93;100.00
2188;BME280;1100;52.014;8.540;2023-11-21T05:42:32;99771.94;;;5.94;100.00
2188;BME280;1100;52.014;8.540;2023-11-21T05:44:57;99778.66;;;5.93;100.00
2188;BME280;1100;52.014;8.540;2023-11-21T05:47:24;99781.00;;;5.94;100.00
2188;BME280;1100;52.014;8.540;2023-11-21T05:49:51;99772.75;;;5.94;100.00
2188;BME280;1100;52.014;8.540;2023-11-21T05:52:17;99777.06;;;5.95;100.00
2188;BME280;1100;52.014;8.540;2023-11-21T05:54:43;99784.91;;;5.97;100.00
2188;BME280;1100;52.014;8.540;2023-11-21T05:57:08;99788.50;;;5.94;100.00
2188;BME280;1100;52.014;8.540;2023-11-21T05:59:34;99791.25;;;5.94;100.00
2188;BME280;1100;52.014;8.540;2023-11-21T06:01:59;99787.28;;;5.95;100.00
2188;BME280;1100;52.014;8.540;2023-11-21T06:04:24;99794.41;;;5.96;100.00
2188;BME280;1100;52.014;8.540;2023-11-21T06:06:51;99801.47;;;5.97;100.00
2188;BME280;1100;52.014;8.540;2023-11-21T06:09:17;99799.91;;;5.96;100.00
2188;BME280;1100;52.014;8.540;2023-11-21T06:11:42;99809.75;;;5.97;100.00
2188;BME280;1100;52.014;8.540;2023-11-21T06:14:08;99808.53;;;5.98;100.00
2188;BME280;1100;52.014;8.540;2023-11-21T06:16:34;99817.19;;;6.00;100.00
2188;BME280;1100;52.014;8.540;2023-11-21T06:19:00;99828.59;;;6.02;100.00
2188;BME280;1100;52.014;8.540;2023-11-21T06:21:26;99832.53;;;6.05;100.00
2188;BME280;1100;52.014;8.540;2023-11-21T06:23:51;99832.91;;;6.03;100.00
2188;BME280;1100;52.014;8.540;2023-11-21T06:26:18;99843.16;;;6.06;100.00
2188;BME280;1100;52.014;8.540;2023-11-21T06:28:43;99838.84;;;6.05;100.00
2188;BME280;1100;52.014;8.540;2023-11-21T06:31:09;99838.84;;;6.05;100.00
2188;BME280;1100;52.014;8.540;2023-11-21T06:33:36;99845.53;;;6.04;100.00
2188;BME280;1100;52.014;8.540;2023-11-21T06:36:02;99851.06;;;6.04;100.00
2188;BME280;1100;52.014;8.540;2023-11-21T06:38:31;99851.84;;;6.05;100.00
2188;BME280;1100;52.014;8.540;2023-11-21T06:40:57;99859.72;;;6.06;100.00
2188;BME280;1100;52.014;8.540;2023-11-21T06:43:23;99860.50;;;6.07;100.00
2188;BME280;1100;52.014;8.540;2023-11-21T06:45:48;99869.94;;;6.09;100.00
2188;BME280;1100;52.014;8.540;2023-11-21T06:48:14;99868.38;;;6.08;100.00
2188;BME280;1100;52.014;8.540;2023-11-21T06:50:40;99870.75;;;6.06;100.00
2188;BME280;1100;52.014;8.540;2023-11-21T06:53:05;99878.63;;;6.08;100.00
2188;BME280;1100;52.014;8.540;2023-11-21T06:55:32;99883.34;;;6.07;100.00
2188;BME280;1100;52.014;8.540;2023-11-21T06:57:58;99884.94;;;6.08;100.00
2188;BME280;1100;52.014;8.540;2023-11-21T07:00:23;99886.09;;;6.07;100.00
2188;BME280;1100;52.014;8.540;2023-11-21T07:02:49;99890.06;;;6.06;100.00
2188;BME280;1100;52.014;8.540;2023-11-21T07:05:14;99888.88;;;6.07;100.00
2188;BME280;1100;52.014;8.540;2023-11-21T07:07:40;99894.38;;;6.07;100.00
2188;BME280;1100;52.014;8.540;2023-11-21T07:10:06;99897.56;;;6.06;100.00
2188;BME280;1100;52.014;8.540;2023-11-21T07:12:33;99903.88;;;6.06;100.00
2188;BME280;1100;52.014;8.540;2023-11-21T07:14:59;99905.06;;;6.05;100.00
2188;BME280;1100;52.014;8.540;2023-11-21T07:17:24;99903.47;;;6.08;100.00
2188;BME280;1100;52.014;8.540;2023-11-21T07:19:49;99912.88;;;6.10;100.00
2188;BME280;1100;52.014;8.540;2023-11-21T07:22:15;99914.81;;;6.14;100.00
2188;BME280;1100;52.014;8.540;2023-11-21T07:24:48;99916.34;;;6.18;100.00
2188;BME280;1100;52.014;8.540;2023-11-21T07:27:15;99923.03;;;6.21;100.00
2188;BME280;1100;52.014;8.540;2023-11-21T07:29:40;99931.59;;;6.30;100.00
2188;BME280;1100;52.014;8.540;2023-11-21T07:32:05;99930.75;;;6.33;100.00
2188;BME280;1100;52.014;8.540;2023-11-21T07:34:31;99937.78;;;6.38;100.00
2188;BME280;1100;52.014;8.540;2023-11-21T07:36:56;99942.84;;;6.43;100.00
2188;BME280;1100;52.014;8.540;2023-11-21T07:39:21;99936.13;;;6.44;100.00
2188;BME280;1100;52.014;8.540;2023-11-21T07:41:47;99945.56;;;6.47;100.00
2188;BME280;1100;52.014;8.540;2023-11-21T07:44:16;99950.28;;;6.46;100.00
2188;BME280;1100;52.014;8.540;2023-11-21T07:46:42;99961.34;;;6.46;100.00
2188;BME280;1100;52.014;8.540;2023-11-21T07:49:08;99950.72;;;6.45;100.00
2188;BME280;1100;52.014;8.540;2023-11-21T07:51:34;99952.28;;;6.46;100.00
2188;BME280;1100;52.014;8.540;2023-11-21T07:53:59;99956.22;;;6.45;100.00
2188;BME280;1100;52.014;8.540;2023-11-21T07:56:25;99958.16;;;6.48;100.00
2188;BME280;1100;52.014;8.540;2023-11-21T07:58:51;99959.38;;;6.47;100.00
2188;BME280;1100;52.014;8.540;2023-11-21T08:01:16;99960.94;;;6.48;100.00
2188;BME280;1100;52.014;8.540;2023-11-21T08:03:41;99964.84;;;6.51;100.00
2188;BME280;1100;52.014;8.540;2023-11-21T08:06:07;99959.34;;;6.51;100.00
2188;BME280;1100;52.014;8.540;2023-11-21T08:08:33;99961.72;;;6.48;100.00
2188;BME280;1100;52.014;8.540;2023-11-21T08:10:58;99959.75;;;6.49;100.00
2188;BME280;1100;52.014;8.540;2023-11-21T08:13:25;99968.03;;;6.49;100.00
2188;BME280;1100;52.014;8.540;2023-11-21T08:15:53;99976.31;;;6.49;100.00
2188;BME280;1100;52.014;8.540;2023-11-21T08:18:19;99977.03;;;6.53;100.00
2188;BME280;1100;52.014;8.540;2023-11-21T08:20:44;99972.72;;;6.52;100.00
2188;BME280;1100;52.014;8.540;2023-11-21T08:23:13;99982.94;;;6.55;100.00
2188;BME280;1100;52.014;8.540;2023-11-21T08:25:40;99980.19;;;6.55;100.00
2188;BME280;1100;52.014;8.540;2023-11-21T08:28:07;99985.28;;;6.57;100.00
2188;BME280;1100;52.014;8.540;2023-11-21T08:30:32;99995.56;;;6.56;100.00
2188;BME280;1100;52.014;8.540;2023-11-21T08:32:58;99994.00;;;6.55;100.00
2188;BME280;1100;52.014;8.540;2023-11-21T08:35:26;99997.94;;;6.54;100.00
2188;BME280;1100;52.014;8.540;2023-11-21T08:37:52;100004.66;;;6.53;100.00
2188;BME280;1100;52.014;8.540;2023-11-21T08:40:20;100014.50;;;6.54;100.00
2188;BME280;1100;52.014;8.540;2023-11-21T08:42:49;100012.94;;;6.53;100.00
2188;BME280;1100;52.014;8.540;2023-11-21T08:45:17;100025.56;;;6.54;100.00
2188;BME280;1100;52.014;8.540;2023-11-21T08:47:42;100027.91;;;6.56;100.00
2188;BME280;1100;52.014;8.540;2023-11-21T08:50:09;100031.06;;;6.54;100.00
2188;BME280;1100;52.014;8.540;2023-11-21T08:52:35;100027.13;;;6.55;100.00
2188;BME280;1100;52.014;8.540;2023-11-21T08:55:02;100027.91;;;6.56;100.00
2188;BME280;1100;52.014;8.540;2023-11-21T08:57:35;100044.47;;;6.56;100.00
2188;BME280;1100;52.014;8.540;2023-11-21T09:00:06;100046.06;;;6.57;100.00
2188;BME280;1100;52.014;8.540;2023-11-21T09:02:43;100050.38;;;6.58;100.00
2188;BME280;1100;52.014;8.540;2023-11-21T09:05:12;100051.59;;;6.57;100.00
2188;BME280;1100;52.014;8.540;2023-11-21T09:07:39;100055.47;;;6.59;100.00
2188;BME280;1100;52.014;8.540;2023-11-21T09:10:06;100050.38;;;6.58;100.00
2188;BME280;1100;52.014;8.540;2023-11-21T09:12:32;100060.63;;;6.57;100.00
2188;BME280;1100;52.014;8.540;2023-11-21T09:14:58;100064.56;;;6.60;100.00
2188;BME280;1100;52.014;8.540;2023-11-21T09:17:23;100065.34;;;6.60;100.00
2188;BME280;1100;52.014;8.540;2023-11-21T09:19:50;100057.03;;;6.60;100.00
2188;BME280;1100;52.014;8.540;2023-11-21T09:22:17;100070.84;;;6.60;100.00
2188;BME280;1100;52.014;8.540;2023-11-21T09:24:42;100078.78;;;6.58;100.00
2188;BME280;1100;52.014;8.540;2023-11-21T09:27:08;100070.94;;;6.53;100.00
2188;BME280;1100;52.014;8.540;2023-11-21T09:29:35;100080.78;;;6.54;100.00
2188;BME280;1100;52.014;8.540;2023-11-21T09:32:00;100080.03;;;6.54;100.00
2188;BME280;1100;52.014;8.540;2023-11-21T09:34:26;100089.47;;;6.56;100.00
2188;BME280;1100;52.014;8.540;2023-11-21T09:36:51;100089.88;;;6.55;100.00
2188;BME280;1100;52.014;8.540;2023-11-21T09:39:17;100085.53;;;6.54;100.00
2188;BME280;1100;52.014;8.540;2023-11-21T09:41:51;100094.19;;;6.56;100.00
2188;BME280;1100;52.014;8.540;2023-11-21T09:44:23;100102.84;;;6.58;100.00
2188;BME280;1100;52.014;8.540;2023-11-21T09:46:51;100102.44;;;6.59;100.00
2188;BME280;1100;52.014;8.540;2023-11-21T09:49:22;100111.13;;;6.58;100.00
2188;BME280;1100;52.014;8.540;2023-11-21T09:51:51;100112.69;;;6.59;100.00
2188;BME280;1100;52.014;8.540;2023-11-21T09:54:20;100112.34;;;6.57;100.00
2188;BME280;1100;52.014;8.540;2023-11-21T09:56:46;100114.31;;;6.56;100.00
2188;BME280;1100;52.014;8.540;2023-11-21T09:59:15;100122.22;;;6.54;100.00
2188;BME280;1100;52.014;8.540;2023-11-21T10:01:41;100124.25;;;6.50;100.00
2188;BME280;1100;52.014;8.540;2023-11-21T10:04:07;100125.06;;;6.47;100.00
2188;BME280;1100;52.014;8.540;2023-11-21T10:06:38;100131.00;;;6.42;100.00
2188;BME280;1100;52.014;8.540;2023-11-21T10:09:04;100130.28;;;6.38;100.00
2188;BME280;1100;52.014;8.540;2023-11-21T10:11:39;100132.31;;;6.33;100.00
2188;BME280;1100;52.014;8.540;2023-11-21T10:14:08;100144.16;;;6.30;100.00
2188;BME280;1100;52.014;8.540;2023-11-21T10:16:36;100142.22;;;6.27;100.00
2188;BME280;1100;52.014;8.540;2023-11-21T10:19:03;100148.88;;;6.30;100.00
2188;BME280;1100;52.014;8.540;2023-11-21T10:21:32;100150.91;;;6.26;100.00
2188;BME280;1100;52.014;8.540;2023-11-21T10:23:58;100152.47;;;6.23;100.00
2188;BME280;1100;52.014;8.540;2023-11-21T10:26:23;100151.34;;;6.20;100.00
2188;BME280;1100;52.014;8.540;2023-11-21T10:28:58;100155.66;;;6.21;100.00
2188;BME280;1100;52.014;8.540;2023-11-21T10:31:26;100149.38;;;6.21;100.00
2188;BME280;1100;52.014;8.540;2023-11-21T10:33:52;100154.13;;;6.17;100.00
2188;BME280;1100;52.014;8.540;2023-11-21T10:36:25;100157.25;;;6.19;100.00
2188;BME280;1100;52.014;8.540;2023-11-21T10:38:52;100154.13;;;6.17;100.00
2188;BME280;1100;52.014;8.540;2023-11-21T10:41:18;100158.81;;;6.20;100.00
2188;BME280;1100;52.014;8.540;2023-11-21T10:43:44;100162.81;;;6.15;100.00
2188;BME280;1100;52.014;8.540;2023-11-21T10:46:09;100159.28;;;6.15;100.00
2188;BME280;1100;52.014;8.540;2023-11-21T10:48:35;100169.94;;;6.13;100.00
2188;BME280;1100;52.014;8.540;2023-11-21T10:51:06;100171.13;;;6.12;100.00
2188;BME280;1100;52.014;8.540;2023-11-21T10:53:32;100170.34;;;6.07;100.00
2188;BME280;1100;52.014;8.540;2023-11-21T10:56:08;100172.75;;;6.02;100.00
2188;BME280;1100;52.014;8.540;2023-11-21T10:58:37;100169.63;;;5.96;100.00
2188;BME280;1100;52.014;8.540;2023-11-21T11:01:06;100175.19;;;5.89;100.00
2188;BME280;1100;52.014;8.540;2023-11-21T11:03:36;100181.50;;;5.85;100.00
2188;BME280;1100;52.014;8.540;2023-11-21T11:06:02;100187.06;;;5.82;100.00
2188;BME280;1100;52.014;8.540;2023-11-21T11:08:28;100185.50;;;5.81;100.00
2188;BME280;1100;52.014;8.540;2023-11-21T11:10:54;100191.78;;;5.81;100.00
2188;BME280;1100;52.014;8.540;2023-11-21T11:13:19;100198.91;;;5.79;100.00
2188;BME280;1100;52.014;8.540;2023-11-21T11:15:48;100202.84;;;5.78;100.00
2188;BME280;1100;52.014;8.540;2023-11-21T11:18:14;100207.56;;;5.81;100.00
2188;BME280;1100;52.014;8.540;2023-11-21T11:20:42;100215.84;;;5.81;100.00
2188;BME280;1100;52.014;8.540;2023-11-21T11:28:47;100224.50;;;5.86;100.00
2188;BME280;1100;52.014;8.540;2023-11-21T11:31:54;100233.53;;;5.87;100.00
2188;BME280;1100;52.014;8.540;2023-11-21T11:34:29;100238.69;;;5.81;100.00
2188;BME280;1100;52.014;8.540;2023-11-21T11:37:07;100239.50;;;5.78;100.00
2188;BME280;1100;52.014;8.540;2023-11-21T11:39:40;100238.75;;;5.74;100.00
2188;BME280;1100;52.014;8.540;2023-11-21T11:42:13;100235.19;;;5.70;100.00
2188;BME280;1100;52.014;8.540;2023-11-21T11:47:19;100235.25;;;5.63;100.00
2188;BME280;1100;52.014;8.540;2023-11-21T11:50:01;100236.41;;;5.65;100.00
2188;BME280;1100;52.014;8.540;2023-11-21T11:52:45;100239.16;;;5.72;100.00
2188;BME280;1100;52.014;8.540;2023-11-21T11:55:16;100237.16;;;5.77;100.00
2188;BME280;1100;52.014;8.540;2023-11-21T11:57:52;100244.63;;;5.80;100.00
2188;BME280;1100;52.014;8.540;2023-11-21T12:00:42;100236.72;;;5.82;100.00
2188;BME280;1100;52.014;8.540;2023-11-21T12:03:08;100235.19;;;5.77;100.00
2188;BME280;1100;52.014;8.540;2023-11-21T12:05:35;100249.75;;;5.78;100.00
2188;BME280;1100;52.014;8.540;2023-11-21T12:08:05;100251.34;;;5.79;100.00
2188;BME280;1100;52.014;8.540;2023-11-21T12:10:33;100265.13;;;5.75;100.00
2188;BME280;1100;52.014;8.540;2023-11-21T12:13:02;100271.06;;;5.70;100.00
2188;BME280;1100;52.014;8.540;2023-11-21T12:15:28;100273.47;;;5.64;100.00
2188;BME280;1100;52.014;8.540;2023-11-21T12:17:57;100275.44;;;5.60;100.00
2188;BME280;1100;52.014;8.540;2023-11-21T12:20:26;100283.34;;;5.54;100.00
2188;BME280;1100;52.014;8.540;2023-11-21T12:22:53;100284.94;;;5.52;100.00
2188;BME280;1100;52.014;8.540;2023-11-21T12:25:21;100287.28;;;5.49;100.00
2188;BME280;1100;52.014;8.540;2023-11-21T12:27:48;100289.69;;;5.47;100.00
2188;BME280;1100;52.014;8.540;2023-11-21T12:30:21;100292.03;;;5.49;100.00
2188;BME280;1100;52.014;8.540;2023-11-21T12:32:52;100297.94;;;5.47;100.00
2188;BME280;1100;52.014;8.540;2023-11-21T12:35:18;100301.50;;;5.44;100.00
2188;BME280;1100;52.014;8.540;2023-11-21T12:37:46;100301.09;;;5.42;100.00
2188;BME280;1100;52.014;8.540;2023-11-21T12:40:13;100304.66;;;5.43;100.00
2188;BME280;1100;52.014;8.540;2023-11-21T12:42:41;100300.72;;;5.44;100.00
2188;BME280;1100;52.014;8.540;2023-11-21T12:45:27;100300.72;;;5.40;100.00
2188;BME280;1100;52.014;8.540;2023-11-21T12:47:56;100302.31;;;5.41;100.00
2188;BME280;1100;52.014;8.540;2023-11-21T12:50:26;100304.66;;;5.39;100.00
2188;BME280;1100;52.014;8.540;2023-11-21T12:53:08;100307.41;;;5.35;100.00
2188;BME280;1100;52.014;8.540;2023-11-21T12:55:34;100310.19;;;5.39;100.00
2188;BME280;1100;52.014;8.540;2023-11-21T12:58:04;100318.81;;;5.45;100.00
2188;BME280;1100;52.014;8.540;2023-11-21T13:00:38;100315.25;;;5.48;100.00
2188;BME280;1100;52.014;8.540;2023-11-21T13:03:05;100305.03;;;5.52;100.00
2188;BME280;1100;52.014;8.540;2023-11-21T13:05:33;100313.25;;;5.59;100.00
2188;BME280;1100;52.014;8.540;2023-11-21T13:08:02;100315.22;;;5.63;100.00
2188;BME280;1100;52.014;8.540;2023-11-21T13:10:30;100321.13;;;5.61;100.00
2188;BME280;1100;52.014;8.540;2023-11-21T13:12:57;100325.50;;;5.58;100.00
2188;BME280;1100;52.014;8.540;2023-11-21T13:15:24;100322.34;;;5.56;100.00
2188;BME280;1100;52.014;8.540;2023-11-21T13:17:50;100329.03;;;5.55;100.00
2188;BME280;1100;52.014;8.540;2023-11-21T13:20:16;100340.84;;;5.56;100.00
2188;BME280;1100;52.014;8.540;2023-11-21T13:23:00;100357.38;;;5.56;100.00
2188;BME280;1100;52.014;8.540;2023-11-21T13:25:32;100363.31;;;5.54;100.00